sensor_id;sensor_type;location;lat;lon;timestamp;P1;P2;P0
42360;PMS5003;54542;51.562;0.004;2022-07-21T00:00:03;10;10;
42360;PMS5003;54542;51.562;0.004;2022-07-21T00:02:30;8;8;
42360;PMS5003;54542;51.562;0.004;2022-07-21T00:04:58;11;11;
42360;PMS5003;54542;51.562;0.004;2022-07-21T00:07:26;7;7;
42360;PMS5003;54542;51.562;0.004;2022-07-21T00:09:53;10;10;
42360;PMS5003;54542;51.562;0.004;2022-07-21T00:12:20;9;9;
42360;PMS5003;54542;51.562;0.004;2022-07-21T00:14:48;10;10;
42360;PMS5003;54542;51.562;0.004;2022-07-21T00:17:15;11;9;
42360;PMS5003;54542;51.562;0.004;2022-07-21T00:19:43;8;8;
42360;PMS5003;54542;51.562;0.004;2022-07-21T00:22:10;11;9;
42360;PMS5003;54542;51.562;0.004;2022-07-21T00:24:37;13;9;
42360;PMS5003;54542;51.562;0.004;2022-07-21T00:27:04;11;11;
42360;PMS5003;54542;51.562;0.004;2022-07-21T00:29:31;9;7;
42360;PMS5003;54542;51.562;0.004;2022-07-21T00:31:59;8;8;
42360;PMS5003;54542;51.562;0.004;2022-07-21T00:34:26;8;8;
42360;PMS5003;54542;51.562;0.004;2022-07-21T00:36:54;9;8;
42360;PMS5003;54542;51.562;0.004;2022-07-21T00:39:21;10;8;
42360;PMS5003;54542;51.562;0.004;2022-07-21T00:41:49;10;10;
42360;PMS5003;54542;51.562;0.004;2022-07-21T00:44:19;11;9;
42360;PMS5003;54542;51.562;0.004;2022-07-21T00:46:47;7;7;
42360;PMS5003;54542;51.562;0.004;2022-07-21T00:49:14;9;9;
42360;PMS5003;54542;51.562;0.004;2022-07-21T00:51:42;7;6;
42360;PMS5003;54542;51.562;0.004;2022-07-21T00:54:10;8;8;
42360;PMS5003;54542;51.562;0.004;2022-07-21T00:56:38;9;8;
42360;PMS5003;54542;51.562;0.004;2022-07-21T00:59:05;6;6;
42360;PMS5003;54542;51.562;0.004;2022-07-21T01:01:33;10;9;
42360;PMS5003;54542;51.562;0.004;2022-07-21T01:04:01;6;6;
42360;PMS5003;54542;51.562;0.004;2022-07-21T01:06:29;6;6;
42360;PMS5003;54542;51.562;0.004;2022-07-21T01:08:56;5;5;
42360;PMS5003;54542;51.562;0.004;2022-07-21T01:11:24;6;6;
42360;PMS5003;54542;51.562;0.004;2022-07-21T01:13:51;7;7;
42360;PMS5003;54542;51.562;0.004;2022-07-21T01:16:18;11;10;
42360;PMS5003;54542;51.562;0.004;2022-07-21T01:18:46;7;7;
42360;PMS5003;54542;51.562;0.004;2022-07-21T01:21:19;6;6;
42360;PMS5003;54542;51.562;0.004;2022-07-21T01:23:55;11;9;
42360;PMS5003;54542;51.562;0.004;2022-07-21T01:26:22;9;7;
42360;PMS5003;54542;51.562;0.004;2022-07-21T01:28:50;11;10;
42360;PMS5003;54542;51.562;0.004;2022-07-21T01:32:07;4;4;
42360;PMS5003;54542;51.562;0.004;2022-07-21T01:34:35;6;6;
42360;PMS5003;54542;51.562;0.004;2022-07-21T01:37:02;6;6;
42360;PMS5003;54542;51.562;0.004;2022-07-21T01:39:29;8;8;
42360;PMS5003;54542;51.562;0.004;2022-07-21T01:41:56;7;7;
42360;PMS5003;54542;51.562;0.004;2022-07-21T01:44:23;9;7;
42360;PMS5003;54542;51.562;0.004;2022-07-21T01:46:51;7;7;
42360;PMS5003;54542;51.562;0.004;2022-07-21T01:49:19;12;7;
42360;PMS5003;54542;51.562;0.004;2022-07-21T01:51:47;7;6;
42360;PMS5003;54542;51.562;0.004;2022-07-21T01:54:15;8;8;
42360;PMS5003;54542;51.562;0.004;2022-07-21T01:56:43;6;6;
42360;PMS5003;54542;51.562;0.004;2022-07-21T01:59:10;9;8;
42360;PMS5003;54542;51.562;0.004;2022-07-21T02:01:37;10;10;
42360;PMS5003;54542;51.562;0.004;2022-07-21T02:04:05;10;10;
42360;PMS5003;54542;51.562;0.004;2022-07-21T02:06:33;8;8;
42360;PMS5003;54542;51.562;0.004;2022-07-21T02:08:59;11;10;
42360;PMS5003;54542;51.562;0.004;2022-07-21T02:11:28;10;9;
42360;PMS5003;54542;51.562;0.004;2022-07-21T02:13:55;8;8;
42360;PMS5003;54542;51.562;0.004;2022-07-21T02:16:22;10;8;
42360;PMS5003;54542;51.562;0.004;2022-07-21T02:18:50;7;6;
42360;PMS5003;54542;51.562;0.004;2022-07-21T02:21:17;11;8;
42360;PMS5003;54542;51.562;0.004;2022-07-21T02:23:45;7;5;
42360;PMS5003;54542;51.562;0.004;2022-07-21T02:26:12;6;4;
42360;PMS5003;54542;51.562;0.004;2022-07-21T02:28:39;7;7;
42360;PMS5003;54542;51.562;0.004;2022-07-21T02:31:07;6;6;
42360;PMS5003;54542;51.562;0.004;2022-07-21T02:33:34;8;6;
42360;PMS5003;54542;51.562;0.004;2022-07-21T02:36:02;5;5;
42360;PMS5003;54542;51.562;0.004;2022-07-21T02:38:29;9;9;
42360;PMS5003;54542;51.562;0.004;2022-07-21T02:40:56;9;7;
42360;PMS5003;54542;51.562;0.004;2022-07-21T02:43:23;8;7;
42360;PMS5003;54542;51.562;0.004;2022-07-21T02:45:51;8;7;
42360;PMS5003;54542;51.562;0.004;2022-07-21T02:48:18;10;7;
42360;PMS5003;54542;51.562;0.004;2022-07-21T02:50:45;7;7;
42360;PMS5003;54542;51.562;0.004;2022-07-21T02:53:13;6;6;
42360;PMS5003;54542;51.562;0.004;2022-07-21T02:55:41;8;7;
42360;PMS5003;54542;51.562;0.004;2022-07-21T02:58:10;5;5;
42360;PMS5003;54542;51.562;0.004;2022-07-21T03:00:39;6;6;
42360;PMS5003;54542;51.562;0.004;2022-07-21T03:03:08;6;6;
42360;PMS5003;54542;51.562;0.004;2022-07-21T03:05:36;6;6;
42360;PMS5003;54542;51.562;0.004;2022-07-21T03:08:05;8;5;
42360;PMS5003;54542;51.562;0.004;2022-07-21T03:10:33;7;7;
42360;PMS5003;54542;51.562;0.004;2022-07-21T03:13:01;8;7;
42360;PMS5003;54542;51.562;0.004;2022-07-21T03:15:29;10;8;
42360;PMS5003;54542;51.562;0.004;2022-07-21T03:17:57;7;7;
42360;PMS5003;54542;51.562;0.004;2022-07-21T03:20:26;5;5;
42360;PMS5003;54542;51.562;0.004;2022-07-21T03:22:55;6;6;
42360;PMS5003;54542;51.562;0.004;2022-07-21T03:25:23;8;8;
42360;PMS5003;54542;51.562;0.004;2022-07-21T03:27:50;9;9;
42360;PMS5003;54542;51.562;0.004;2022-07-21T03:30:18;8;8;
42360;PMS5003;54542;51.562;0.004;2022-07-21T03:32:46;6;6;
42360;PMS5003;54542;51.562;0.004;2022-07-21T03:35:14;12;9;
42360;PMS5003;54542;51.562;0.004;2022-07-21T03:37:42;6;6;
42360;PMS5003;54542;51.562;0.004;2022-07-21T03:40:11;7;5;
42360;PMS5003;54542;51.562;0.004;2022-07-21T03:42:40;7;7;
42360;PMS5003;54542;51.562;0.004;2022-07-21T03:45:08;9;8;
42360;PMS5003;54542;51.562;0.004;2022-07-21T03:47:36;6;6;
42360;PMS5003;54542;51.562;0.004;2022-07-21T03:50:05;5;5;
42360;PMS5003;54542;51.562;0.004;2022-07-21T03:52:33;8;7;
42360;PMS5003;54542;51.562;0.004;2022-07-21T03:55:00;8;7;
42360;PMS5003;54542;51.562;0.004;2022-07-21T03:57:27;8;7;
42360;PMS5003;54542;51.562;0.004;2022-07-21T03:59:55;6;6;
42360;PMS5003;54542;51.562;0.004;2022-07-21T04:02:22;8;8;
42360;PMS5003;54542;51.562;0.004;2022-07-21T04:04:49;6;5;
42360;PMS5003;54542;51.562;0.004;2022-07-21T04:07:16;7;5;
42360;PMS5003;54542;51.562;0.004;2022-07-21T04:09:43;7;6;
42360;PMS5003;54542;51.562;0.004;2022-07-21T04:12:10;8;6;
42360;PMS5003;54542;51.562;0.004;2022-07-21T04:14:38;6;6;
42360;PMS5003;54542;51.562;0.004;2022-07-21T04:17:05;6;6;
42360;PMS5003;54542;51.562;0.004;2022-07-21T04:19:32;9;7;
42360;PMS5003;54542;51.562;0.004;2022-07-21T04:21:59;7;7;
42360;PMS5003;54542;51.562;0.004;2022-07-21T04:24:26;3;3;
42360;PMS5003;54542;51.562;0.004;2022-07-21T04:26:53;5;5;
42360;PMS5003;54542;51.562;0.004;2022-07-21T04:29:19;6;6;
42360;PMS5003;54542;51.562;0.004;2022-07-21T04:31:47;9;7;
42360;PMS5003;54542;51.562;0.004;2022-07-21T04:34:14;6;5;
42360;PMS5003;54542;51.562;0.004;2022-07-21T04:36:41;9;7;
42360;PMS5003;54542;51.562;0.004;2022-07-21T04:39:08;5;4;
42360;PMS5003;54542;51.562;0.004;2022-07-21T04:41:35;6;5;
42360;PMS5003;54542;51.562;0.004;2022-07-21T04:44:02;4;4;
42360;PMS5003;54542;51.562;0.004;2022-07-21T04:46:29;3;3;
42360;PMS5003;54542;51.562;0.004;2022-07-21T04:48:56;5;5;
42360;PMS5003;54542;51.562;0.004;2022-07-21T04:51:23;6;3;
42360;PMS5003;54542;51.562;0.004;2022-07-21T04:53:51;6;5;
42360;PMS5003;54542;51.562;0.004;2022-07-21T04:56:18;6;6;
42360;PMS5003;54542;51.562;0.004;2022-07-21T04:58:45;8;8;
42360;PMS5003;54542;51.562;0.004;2022-07-21T05:01:12;6;5;
42360;PMS5003;54542;51.562;0.004;2022-07-21T05:03:39;8;6;
42360;PMS5003;54542;51.562;0.004;2022-07-21T05:06:06;7;4;
42360;PMS5003;54542;51.562;0.004;2022-07-21T05:08:33;6;4;
42360;PMS5003;54542;51.562;0.004;2022-07-21T05:11:00;4;3;
42360;PMS5003;54542;51.562;0.004;2022-07-21T05:13:28;9;6;
42360;PMS5003;54542;51.562;0.004;2022-07-21T05:15:55;6;6;
42360;PMS5003;54542;51.562;0.004;2022-07-21T05:18:22;6;5;
42360;PMS5003;54542;51.562;0.004;2022-07-21T05:20:49;5;5;
42360;PMS5003;54542;51.562;0.004;2022-07-21T05:23:16;8;7;
42360;PMS5003;54542;51.562;0.004;2022-07-21T05:25:43;5;5;
42360;PMS5003;54542;51.562;0.004;2022-07-21T05:28:10;3;3;
42360;PMS5003;54542;51.562;0.004;2022-07-21T05:30:37;5;5;
42360;PMS5003;54542;51.562;0.004;2022-07-21T05:33:04;6;6;
42360;PMS5003;54542;51.562;0.004;2022-07-21T05:35:31;10;7;
42360;PMS5003;54542;51.562;0.004;2022-07-21T05:37:59;5;5;
42360;PMS5003;54542;51.562;0.004;2022-07-21T05:40:26;4;4;
42360;PMS5003;54542;51.562;0.004;2022-07-21T05:42:53;8;5;
42360;PMS5003;54542;51.562;0.004;2022-07-21T05:45:20;5;5;
42360;PMS5003;54542;51.562;0.004;2022-07-21T05:47:48;5;5;
42360;PMS5003;54542;51.562;0.004;2022-07-21T05:50:15;7;6;
42360;PMS5003;54542;51.562;0.004;2022-07-21T05:52:42;6;5;
42360;PMS5003;54542;51.562;0.004;2022-07-21T05:55:09;6;6;
42360;PMS5003;54542;51.562;0.004;2022-07-21T05:57:36;8;5;
42360;PMS5003;54542;51.562;0.004;2022-07-21T06:00:05;5;5;
42360;PMS5003;54542;51.562;0.004;2022-07-21T06:02:33;4;4;
42360;PMS5003;54542;51.562;0.004;2022-07-21T06:05:01;5;4;
42360;PMS5003;54542;51.562;0.004;2022-07-21T06:07:28;9;6;
42360;PMS5003;54542;51.562;0.004;2022-07-21T06:09:55;6;5;
42360;PMS5003;54542;51.562;0.004;2022-07-21T06:12:22;7;7;
42360;PMS5003;54542;51.562;0.004;2022-07-21T06:14:50;7;7;
42360;PMS5003;54542;51.562;0.004;2022-07-21T06:17:17;5;5;
42360;PMS5003;54542;51.562;0.004;2022-07-21T06:19:44;9;7;
42360;PMS5003;54542;51.562;0.004;2022-07-21T06:22:10;11;8;
42360;PMS5003;54542;51.562;0.004;2022-07-21T06:24:37;5;5;
42360;PMS5003;54542;51.562;0.004;2022-07-21T06:27:05;6;4;
42360;PMS5003;54542;51.562;0.004;2022-07-21T06:29:32;5;5;
42360;PMS5003;54542;51.562;0.004;2022-07-21T06:32:00;6;4;
42360;PMS5003;54542;51.562;0.004;2022-07-21T06:34:27;6;5;
42360;PMS5003;54542;51.562;0.004;2022-07-21T06:36:54;7;7;
42360;PMS5003;54542;51.562;0.004;2022-07-21T06:39:21;6;3;
42360;PMS5003;54542;51.562;0.004;2022-07-21T06:41:48;5;4;
42360;PMS5003;54542;51.562;0.004;2022-07-21T06:44:15;8;8;
42360;PMS5003;54542;51.562;0.004;2022-07-21T06:46:43;8;6;
42360;PMS5003;54542;51.562;0.004;2022-07-21T06:49:09;7;6;
42360;PMS5003;54542;51.562;0.004;2022-07-21T06:51:36;5;3;
42360;PMS5003;54542;51.562;0.004;2022-07-21T06:54:03;6;6;
42360;PMS5003;54542;51.562;0.004;2022-07-21T06:56:31;6;6;
42360;PMS5003;54542;51.562;0.004;2022-07-21T06:58:59;8;8;
42360;PMS5003;54542;51.562;0.004;2022-07-21T07:01:26;7;7;
42360;PMS5003;54542;51.562;0.004;2022-07-21T07:03:53;6;6;
42360;PMS5003;54542;51.562;0.004;2022-07-21T07:06:20;5;5;
42360;PMS5003;54542;51.562;0.004;2022-07-21T07:08:47;9;7;
42360;PMS5003;54542;51.562;0.004;2022-07-21T07:11:14;6;5;
42360;PMS5003;54542;51.562;0.004;2022-07-21T07:13:41;6;6;
42360;PMS5003;54542;51.562;0.004;2022-07-21T07:16:08;10;8;
42360;PMS5003;54542;51.562;0.004;2022-07-21T07:18:35;9;7;
42360;PMS5003;54542;51.562;0.004;2022-07-21T07:21:02;8;7;
42360;PMS5003;54542;51.562;0.004;2022-07-21T07:23:30;8;7;
42360;PMS5003;54542;51.562;0.004;2022-07-21T07:25:57;8;8;
42360;PMS5003;54542;51.562;0.004;2022-07-21T07:28:24;7;7;
42360;PMS5003;54542;51.562;0.004;2022-07-21T07:30:51;10;8;
42360;PMS5003;54542;51.562;0.004;2022-07-21T07:33:19;11;7;
42360;PMS5003;54542;51.562;0.004;2022-07-21T07:35:46;10;3;
42360;PMS5003;54542;51.562;0.004;2022-07-21T07:38:13;8;8;
42360;PMS5003;54542;51.562;0.004;2022-07-21T07:40:41;6;6;
42360;PMS5003;54542;51.562;0.004;2022-07-21T07:43:09;6;5;
42360;PMS5003;54542;51.562;0.004;2022-07-21T07:45:37;6;6;
42360;PMS5003;54542;51.562;0.004;2022-07-21T07:48:05;7;7;
42360;PMS5003;54542;51.562;0.004;2022-07-21T07:50:33;4;4;
42360;PMS5003;54542;51.562;0.004;2022-07-21T07:53:01;7;6;
42360;PMS5003;54542;51.562;0.004;2022-07-21T07:55:29;7;7;
42360;PMS5003;54542;51.562;0.004;2022-07-21T07:57:57;10;6;
42360;PMS5003;54542;51.562;0.004;2022-07-21T08:00:24;6;6;
42360;PMS5003;54542;51.562;0.004;2022-07-21T08:02:51;7;5;
42360;PMS5003;54542;51.562;0.004;2022-07-21T08:05:19;4;4;
42360;PMS5003;54542;51.562;0.004;2022-07-21T08:07:47;7;7;
42360;PMS5003;54542;51.562;0.004;2022-07-21T08:10:15;11;8;
42360;PMS5003;54542;51.562;0.004;2022-07-21T08:12:42;9;7;
42360;PMS5003;54542;51.562;0.004;2022-07-21T08:15:10;6;6;
42360;PMS5003;54542;51.562;0.004;2022-07-21T08:17:37;9;9;
42360;PMS5003;54542;51.562;0.004;2022-07-21T08:20:05;5;4;
42360;PMS5003;54542;51.562;0.004;2022-07-21T08:22:33;10;7;
42360;PMS5003;54542;51.562;0.004;2022-07-21T08:25:00;10;9;
42360;PMS5003;54542;51.562;0.004;2022-07-21T08:27:27;6;6;
42360;PMS5003;54542;51.562;0.004;2022-07-21T08:29:54;9;8;
42360;PMS5003;54542;51.562;0.004;2022-07-21T08:32:23;8;7;
42360;PMS5003;54542;51.562;0.004;2022-07-21T08:34:51;5;5;
42360;PMS5003;54542;51.562;0.004;2022-07-21T08:37:19;12;8;
42360;PMS5003;54542;51.562;0.004;2022-07-21T08:39:46;8;8;
42360;PMS5003;54542;51.562;0.004;2022-07-21T08:42:14;9;9;
42360;PMS5003;54542;51.562;0.004;2022-07-21T08:44:42;9;6;
42360;PMS5003;54542;51.562;0.004;2022-07-21T08:47:09;10;8;
42360;PMS5003;54542;51.562;0.004;2022-07-21T08:49:37;11;6;
42360;PMS5003;54542;51.562;0.004;2022-07-21T08:52:06;9;9;
42360;PMS5003;54542;51.562;0.004;2022-07-21T08:54:33;12;9;
42360;PMS5003;54542;51.562;0.004;2022-07-21T08:57:01;9;8;
42360;PMS5003;54542;51.562;0.004;2022-07-21T08:59:29;7;6;
42360;PMS5003;54542;51.562;0.004;2022-07-21T09:01:56;7;7;
42360;PMS5003;54542;51.562;0.004;2022-07-21T09:04:25;4;4;
42360;PMS5003;54542;51.562;0.004;2022-07-21T09:06:55;8;7;
42360;PMS5003;54542;51.562;0.004;2022-07-21T09:09:24;8;8;
42360;PMS5003;54542;51.562;0.004;2022-07-21T09:11:53;7;7;
42360;PMS5003;54542;51.562;0.004;2022-07-21T09:14:21;10;10;
42360;PMS5003;54542;51.562;0.004;2022-07-21T09:16:51;8;6;
42360;PMS5003;54542;51.562;0.004;2022-07-21T09:19:20;7;7;
42360;PMS5003;54542;51.562;0.004;2022-07-21T09:21:50;8;8;
42360;PMS5003;54542;51.562;0.004;2022-07-21T09:24:21;8;8;
42360;PMS5003;54542;51.562;0.004;2022-07-21T09:27:07;9;8;
42360;PMS5003;54542;51.562;0.004;2022-07-21T09:29:37;12;7;
42360;PMS5003;54542;51.562;0.004;2022-07-21T09:32:15;10;8;
42360;PMS5003;54542;51.562;0.004;2022-07-21T09:34:46;7;7;
42360;PMS5003;54542;51.562;0.004;2022-07-21T09:37:15;10;10;
42360;PMS5003;54542;51.562;0.004;2022-07-21T09:39:44;12;9;
42360;PMS5003;54542;51.562;0.004;2022-07-21T09:42:14;9;9;
42360;PMS5003;54542;51.562;0.004;2022-07-21T09:44:43;9;8;
42360;PMS5003;54542;51.562;0.004;2022-07-21T09:47:12;10;8;
42360;PMS5003;54542;51.562;0.004;2022-07-21T09:49:41;11;10;
42360;PMS5003;54542;51.562;0.004;2022-07-21T09:52:25;10;9;
42360;PMS5003;54542;51.562;0.004;2022-07-21T09:54:55;10;10;
42360;PMS5003;54542;51.562;0.004;2022-07-21T09:57:24;11;11;
42360;PMS5003;54542;51.562;0.004;2022-07-21T09:59:53;11;9;
42360;PMS5003;54542;51.562;0.004;2022-07-21T10:02:21;7;7;
42360;PMS5003;54542;51.562;0.004;2022-07-21T10:04:51;11;11;
42360;PMS5003;54542;51.562;0.004;2022-07-21T10:07:24;9;9;
42360;PMS5003;54542;51.562;0.004;2022-07-21T10:09:52;12;11;
42360;PMS5003;54542;51.562;0.004;2022-07-21T10:12:20;11;8;
42360;PMS5003;54542;51.562;0.004;2022-07-21T10:14:48;10;10;
42360;PMS5003;54542;51.562;0.004;2022-07-21T10:17:16;8;8;
42360;PMS5003;54542;51.562;0.004;2022-07-21T10:19:47;9;9;
42360;PMS5003;54542;51.562;0.004;2022-07-21T10:22:31;11;11;
42360;PMS5003;54542;51.562;0.004;2022-07-21T10:25:10;14;11;
42360;PMS5003;54542;51.562;0.004;2022-07-21T10:27:37;16;15;
42360;PMS5003;54542;51.562;0.004;2022-07-21T10:30:04;12;10;
42360;PMS5003;54542;51.562;0.004;2022-07-21T10:32:33;10;9;
42360;PMS5003;54542;51.562;0.004;2022-07-21T10:35:03;12;11;
42360;PMS5003;54542;51.562;0.004;2022-07-21T10:37:53;16;11;
42360;PMS5003;54542;51.562;0.004;2022-07-21T10:40:37;10;10;
42360;PMS5003;54542;51.562;0.004;2022-07-21T10:43:37;9;9;
42360;PMS5003;54542;51.562;0.004;2022-07-21T10:46:39;10;10;
42360;PMS5003;54542;51.562;0.004;2022-07-21T10:49:06;8;8;
42360;PMS5003;54542;51.562;0.004;2022-07-21T10:51:36;10;10;
42360;PMS5003;54542;51.562;0.004;2022-07-21T10:54:36;10;10;
42360;PMS5003;54542;51.562;0.004;2022-07-21T10:57:35;9;9;
42360;PMS5003;54542;51.562;0.004;2022-07-21T11:00:20;10;10;
42360;PMS5003;54542;51.562;0.004;2022-07-21T11:02:51;12;11;
42360;PMS5003;54542;51.562;0.004;2022-07-21T11:05:23;11;11;
42360;PMS5003;54542;51.562;0.004;2022-07-21T11:08:08;11;11;
42360;PMS5003;54542;51.562;0.004;2022-07-21T11:10:37;11;9;
42360;PMS5003;54542;51.562;0.004;2022-07-21T11:13:06;12;12;
42360;PMS5003;54542;51.562;0.004;2022-07-21T11:16:06;11;11;
42360;PMS5003;54542;51.562;0.004;2022-07-21T11:18:33;9;9;
42360;PMS5003;54542;51.562;0.004;2022-07-21T11:21:03;12;12;
42360;PMS5003;54542;51.562;0.004;2022-07-21T11:23:35;11;11;
42360;PMS5003;54542;51.562;0.004;2022-07-21T11:26:03;15;15;
42360;PMS5003;54542;51.562;0.004;2022-07-21T11:28:31;13;13;
42360;PMS5003;54542;51.562;0.004;2022-07-21T11:31:15;14;12;
42360;PMS5003;54542;51.562;0.004;2022-07-21T11:33:44;14;13;
42360;PMS5003;54542;51.562;0.004;2022-07-21T11:36:29;14;14;
42360;PMS5003;54542;51.562;0.004;2022-07-21T11:38:59;14;14;
42360;PMS5003;54542;51.562;0.004;2022-07-21T11:41:28;14;12;
42360;PMS5003;54542;51.562;0.004;2022-07-21T11:43:56;12;12;
42360;PMS5003;54542;51.562;0.004;2022-07-21T11:46:23;16;15;
42360;PMS5003;54542;51.562;0.004;2022-07-21T11:49:00;12;12;
42360;PMS5003;54542;51.562;0.004;2022-07-21T11:51:30;16;16;
42360;PMS5003;54542;51.562;0.004;2022-07-21T11:53:57;13;12;
42360;PMS5003;54542;51.562;0.004;2022-07-21T11:56:25;14;12;
42360;PMS5003;54542;51.562;0.004;2022-07-21T11:59:07;11;11;
42360;PMS5003;54542;51.562;0.004;2022-07-21T12:01:47;11;11;
42360;PMS5003;54542;51.562;0.004;2022-07-21T12:04:25;9;9;
42360;PMS5003;54542;51.562;0.004;2022-07-21T12:06:53;11;9;
42360;PMS5003;54542;51.562;0.004;2022-07-21T12:09:21;11;8;
42360;PMS5003;54542;51.562;0.004;2022-07-21T12:11:48;11;11;
42360;PMS5003;54542;51.562;0.004;2022-07-21T12:14:16;12;12;
42360;PMS5003;54542;51.562;0.004;2022-07-21T12:16:47;9;9;
42360;PMS5003;54542;51.562;0.004;2022-07-21T12:19:16;10;10;
42360;PMS5003;54542;51.562;0.004;2022-07-21T12:21:45;11;11;
42360;PMS5003;54542;51.562;0.004;2022-07-21T12:24:13;10;10;
42360;PMS5003;54542;51.562;0.004;2022-07-21T12:26:41;15;12;
42360;PMS5003;54542;51.562;0.004;2022-07-21T12:29:09;10;8;
42360;PMS5003;54542;51.562;0.004;2022-07-21T12:31:36;10;10;
42360;PMS5003;54542;51.562;0.004;2022-07-21T12:34:12;9;9;
42360;PMS5003;54542;51.562;0.004;2022-07-21T12:36:40;9;9;
42360;PMS5003;54542;51.562;0.004;2022-07-21T12:39:17;7;7;
42360;PMS5003;54542;51.562;0.004;2022-07-21T12:41:46;10;10;
42360;PMS5003;54542;51.562;0.004;2022-07-21T12:44:13;10;10;
42360;PMS5003;54542;51.562;0.004;2022-07-21T12:46:42;9;8;
42360;PMS5003;54542;51.562;0.004;2022-07-21T12:49:10;11;9;
42360;PMS5003;54542;51.562;0.004;2022-07-21T12:51:37;9;9;
42360;PMS5003;54542;51.562;0.004;2022-07-21T12:54:05;9;9;
42360;PMS5003;54542;51.562;0.004;2022-07-21T12:56:34;11;10;
42360;PMS5003;54542;51.562;0.004;2022-07-21T12:59:02;8;8;
42360;PMS5003;54542;51.562;0.004;2022-07-21T13:01:30;9;9;
42360;PMS5003;54542;51.562;0.004;2022-07-21T13:04:00;9;8;
42360;PMS5003;54542;51.562;0.004;2022-07-21T13:06:28;8;8;
42360;PMS5003;54542;51.562;0.004;2022-07-21T13:08:56;8;8;
42360;PMS5003;54542;51.562;0.004;2022-07-21T13:11:23;8;8;
42360;PMS5003;54542;51.562;0.004;2022-07-21T13:13:51;9;9;
42360;PMS5003;54542;51.562;0.004;2022-07-21T13:16:19;8;8;
42360;PMS5003;54542;51.562;0.004;2022-07-21T13:18:47;10;9;
42360;PMS5003;54542;51.562;0.004;2022-07-21T13:21:15;8;8;
42360;PMS5003;54542;51.562;0.004;2022-07-21T13:23:42;7;7;
42360;PMS5003;54542;51.562;0.004;2022-07-21T13:26:10;6;6;
42360;PMS5003;54542;51.562;0.004;2022-07-21T13:28:37;6;6;
42360;PMS5003;54542;51.562;0.004;2022-07-21T13:31:05;8;8;
42360;PMS5003;54542;51.562;0.004;2022-07-21T13:33:33;7;7;
42360;PMS5003;54542;51.562;0.004;2022-07-21T13:36:00;6;6;
42360;PMS5003;54542;51.562;0.004;2022-07-21T13:38:28;8;8;
42360;PMS5003;54542;51.562;0.004;2022-07-21T13:40:56;13;13;
42360;PMS5003;54542;51.562;0.004;2022-07-21T13:43:24;6;5;
42360;PMS5003;54542;51.562;0.004;2022-07-21T13:45:51;6;6;
42360;PMS5003;54542;51.562;0.004;2022-07-21T13:48:19;8;7;
42360;PMS5003;54542;51.562;0.004;2022-07-21T13:50:46;10;8;
42360;PMS5003;54542;51.562;0.004;2022-07-21T13:53:14;8;6;
42360;PMS5003;54542;51.562;0.004;2022-07-21T13:55:41;7;5;
42360;PMS5003;54542;51.562;0.004;2022-07-21T13:58:09;8;7;
42360;PMS5003;54542;51.562;0.004;2022-07-21T14:00:37;7;6;
42360;PMS5003;54542;51.562;0.004;2022-07-21T14:03:04;9;7;
42360;PMS5003;54542;51.562;0.004;2022-07-21T14:05:32;6;6;
42360;PMS5003;54542;51.562;0.004;2022-07-21T14:07:59;8;6;
42360;PMS5003;54542;51.562;0.004;2022-07-21T14:10:27;5;5;
42360;PMS5003;54542;51.562;0.004;2022-07-21T14:12:54;8;7;
42360;PMS5003;54542;51.562;0.004;2022-07-21T14:15:22;9;7;
42360;PMS5003;54542;51.562;0.004;2022-07-21T14:17:50;5;5;
42360;PMS5003;54542;51.562;0.004;2022-07-21T14:20:17;3;3;
42360;PMS5003;54542;51.562;0.004;2022-07-21T14:22:45;6;6;
42360;PMS5003;54542;51.562;0.004;2022-07-21T14:25:12;9;7;
42360;PMS5003;54542;51.562;0.004;2022-07-21T14:27:40;5;5;
42360;PMS5003;54542;51.562;0.004;2022-07-21T14:30:08;7;7;
42360;PMS5003;54542;51.562;0.004;2022-07-21T14:32:36;5;4;
42360;PMS5003;54542;51.562;0.004;2022-07-21T14:35:04;6;6;
42360;PMS5003;54542;51.562;0.004;2022-07-21T14:37:32;6;6;
42360;PMS5003;54542;51.562;0.004;2022-07-21T14:39:59;6;6;
42360;PMS5003;54542;51.562;0.004;2022-07-21T14:42:27;8;5;
42360;PMS5003;54542;51.562;0.004;2022-07-21T14:44:54;3;3;
42360;PMS5003;54542;51.562;0.004;2022-07-21T14:47:22;6;6;
42360;PMS5003;54542;51.562;0.004;2022-07-21T14:49:50;5;4;
42360;PMS5003;54542;51.562;0.004;2022-07-21T14:52:17;5;5;
42360;PMS5003;54542;51.562;0.004;2022-07-21T14:54:45;4;4;
42360;PMS5003;54542;51.562;0.004;2022-07-21T14:57:13;4;4;
42360;PMS5003;54542;51.562;0.004;2022-07-21T14:59:40;4;4;
42360;PMS5003;54542;51.562;0.004;2022-07-21T15:02:08;3;3;
42360;PMS5003;54542;51.562;0.004;2022-07-21T15:04:35;4;4;
42360;PMS5003;54542;51.562;0.004;2022-07-21T15:07:03;6;4;
42360;PMS5003;54542;51.562;0.004;2022-07-21T15:09:30;3;3;
42360;PMS5003;54542;51.562;0.004;2022-07-21T15:11:58;2;2;
42360;PMS5003;54542;51.562;0.004;2022-07-21T15:14:26;5;2;
42360;PMS5003;54542;51.562;0.004;2022-07-21T15:16:53;6;3;
42360;PMS5003;54542;51.562;0.004;2022-07-21T15:19:21;3;3;
42360;PMS5003;54542;51.562;0.004;2022-07-21T15:21:48;2;2;
42360;PMS5003;54542;51.562;0.004;2022-07-21T15:24:15;4;4;
42360;PMS5003;54542;51.562;0.004;2022-07-21T15:26:43;4;4;
42360;PMS5003;54542;51.562;0.004;2022-07-21T15:29:10;3;3;
42360;PMS5003;54542;51.562;0.004;2022-07-21T15:31:38;3;2;
42360;PMS5003;54542;51.562;0.004;2022-07-21T15:34:06;4;4;
42360;PMS5003;54542;51.562;0.004;2022-07-21T15:36:33;3;3;
42360;PMS5003;54542;51.562;0.004;2022-07-21T15:39:01;5;5;
42360;PMS5003;54542;51.562;0.004;2022-07-21T15:41:29;1;1;
42360;PMS5003;54542;51.562;0.004;2022-07-21T15:44:01;3;3;
42360;PMS5003;54542;51.562;0.004;2022-07-21T15:46:29;5;5;
42360;PMS5003;54542;51.562;0.004;2022-07-21T15:48:56;3;2;
42360;PMS5003;54542;51.562;0.004;2022-07-21T15:51:24;5;2;
42360;PMS5003;54542;51.562;0.004;2022-07-21T15:53:51;5;2;
42360;PMS5003;54542;51.562;0.004;2022-07-21T15:56:19;5;4;
42360;PMS5003;54542;51.562;0.004;2022-07-21T15:58:47;3;3;
42360;PMS5003;54542;51.562;0.004;2022-07-21T16:01:14;5;3;
42360;PMS5003;54542;51.562;0.004;2022-07-21T16:03:42;5;4;
42360;PMS5003;54542;51.562;0.004;2022-07-21T16:06:09;6;6;
42360;PMS5003;54542;51.562;0.004;2022-07-21T16:08:36;2;2;
42360;PMS5003;54542;51.562;0.004;2022-07-21T16:11:04;3;3;
42360;PMS5003;54542;51.562;0.004;2022-07-21T16:13:31;5;4;
42360;PMS5003;54542;51.562;0.004;2022-07-21T16:15:59;5;3;
42360;PMS5003;54542;51.562;0.004;2022-07-21T16:18:26;4;3;
42360;PMS5003;54542;51.562;0.004;2022-07-21T16:20:54;3;3;
42360;PMS5003;54542;51.562;0.004;2022-07-21T16:23:22;1;1;
42360;PMS5003;54542;51.562;0.004;2022-07-21T16:25:49;3;3;
42360;PMS5003;54542;51.562;0.004;2022-07-21T16:28:17;4;2;
42360;PMS5003;54542;51.562;0.004;2022-07-21T16:30:45;7;5;
42360;PMS5003;54542;51.562;0.004;2022-07-21T16:33:12;5;4;
42360;PMS5003;54542;51.562;0.004;2022-07-21T16:35:40;4;3;
42360;PMS5003;54542;51.562;0.004;2022-07-21T16:38:07;2;2;
42360;PMS5003;54542;51.562;0.004;2022-07-21T16:40:35;3;3;
42360;PMS5003;54542;51.562;0.004;2022-07-21T16:43:02;5;3;
42360;PMS5003;54542;51.562;0.004;2022-07-21T16:45:30;2;2;
